Westwood Robson — A8PD8 — position and weather

sailwx.info

Track history (hours):
 
Tides and Currents Weather Stations Pressure Air Temp Water Temp Dewpoint Dewpoint Depression Visibility Wind Speed Wind Dir Waves Ship Positions

Westwood Robson

Last reported at 2017-Dec-14 18:22 UTC. Time now 2017-Dec-18 05:14 UTC.
Position N 32°40' W 117°40'.

Length 209 m; draft 8.7 m.

Type: Ship (hazmat cat A). MMSI: 636017154.

Date/timePositionNaut miles runAvg speedWind from/ knotsBaromVisibWave heightAir tempDewpointWater temp
2017-Dec-14 18:22N 32°40' W 117°40'616.8
2017-Dec-14 18:00N 32°46' W 117°44'1116.7
2017-Dec-14 17:20N 32°56' W 117°50'516.4
2017-Dec-14 17:00N 33°00' W 117°53'1416.5
2017-Dec-14 16:11N 33°12' W 118°01'316.4
2017-Dec-14 16:00N 33°15' W 118°03'1716.6
2017-Dec-14 15:00N 33°30' W 118°11'14 0.5
2017-Dec-13 07:55N 33°44' W 118°16'3 6.3
2017-Dec-13 07:30N 33°41' W 118°14'5 8.8
2017-Dec-13 06:58N 33°37' W 118°15'612.0
2017-Dec-13 06:30N 33°36' W 118°21'815.2
2017-Dec-13 06:00N 33°40' W 118°29'815.3
2017-Dec-13 05:30N 33°44' W 118°37'715.1
2017-Dec-13 05:00N 33°48' W 118°45'815.0
2017-Dec-13 04:30N 33°52' W 118°53'715.0
2017-Dec-13 04:00N 33°55' W 119°01'815.2
2017-Dec-13 03:30N 33°59' W 119°09'714.4
2017-Dec-13 03:00N 34°04' W 119°15'510.6
2017-Dec-13 02:30N 34°09' W 119°13'0 0.5
2017-Dec-13 01:59N 34°09' W 119°12'0 0.0
2017-Dec-12 21:44N 34°09' W 119°12'0 0.0
2017-Dec-12 21:29N 34°09' W 119°12'0 0.0
2017-Dec-12 20:56N 34°09' W 119°12'0 0.0
2017-Dec-12 19:14N 34°09' W 119°12'0 0.0
2017-Dec-12 18:56N 34°09' W 119°12'0 0.0
2017-Dec-12 16:47N 34°09' W 119°12'0 0.0
2017-Dec-12 16:29N 34°09' W 119°12'0 0.0
2017-Dec-12 14:35N 34°09' W 119°12'0 0.2
2017-Dec-12 14:30N 34°09' W 119°12'2 4.3
2017-Dec-12 14:01N 34°07' W 119°14'3 5.8
2017-Dec-12 13:31N 34°04' W 119°15'612.2
2017-Dec-12 12:59N 34°01' W 119°08'612.9
2017-Dec-12 12:30N 33°58' W 119°02'713.2
2017-Dec-12 11:59N 33°55' W 118°54'613.4
2017-Dec-12 11:31N 33°51' W 118°48'713.3
2017-Dec-12 11:00N 33°48' W 118°41'713.3
2017-Dec-12 10:30N 33°45' W 118°34'713.2
2017-Dec-12 09:59N 33°41' W 118°27'1612.1
2017-Dec-12 08:40N 33°35' W 118°09'211.8
2017-Dec-12 08:30N 33°33' W 118°09'613.0
2017-Dec-12 08:00N 33°27' W 118°06'714.0
2017-Dec-12 07:30N 33°20' W 118°03'713.7
2017-Dec-12 07:00N 33°14' W 118°00'714.0
2017-Dec-12 06:30N 33°07' W 117°57'714.1
2017-Dec-12 06:00N 33°01' W 117°54'713.9
2017-Dec-12 05:31N 32°55' W 117°50'713.9
2017-Dec-12 05:00N 32°48' W 117°47'713.5
2017-Dec-12 04:30N 32°42' W 117°43'713.8
2017-Dec-12 04:00N 32°36' W 117°40'714.0
2017-Dec-12 03:30N 32°30' W 117°37'714.0
2017-Dec-12 03:00N 32°23' W 117°34'5 9.6
2017-Dec-12 02:30N 32°18' W 117°32'  
Track history (hours):
 
Tides and Currents Weather Stations Pressure Air Temp Water Temp Dewpoint Dewpoint Depression Visibility Wind Speed Wind Dir Waves Ship Positions

Westwood Robson

Last reported at 2017-Dec-14 18:22 UTC. Time now 2017-Dec-18 05:14 UTC.
Position N 32°40' W 117°40'.

Length 209 m; draft 8.7 m.

Type: Ship (hazmat cat A). MMSI: 636017154.

Date/timePositionNaut miles runAvg speedWind from/ knotsBaromVisibWave heightAir tempDewpointWater temp
2017-Dec-14 18:22N 32°40' W 117°40'616.8
2017-Dec-14 18:00N 32°46' W 117°44'1116.7
2017-Dec-14 17:20N 32°56' W 117°50'516.4
2017-Dec-14 17:00N 33°00' W 117°53'1416.5
2017-Dec-14 16:11N 33°12' W 118°01'316.4
2017-Dec-14 16:00N 33°15' W 118°03'1716.6
2017-Dec-14 15:00N 33°30' W 118°11'14 0.5
2017-Dec-13 07:55N 33°44' W 118°16'3 6.3
2017-Dec-13 07:30N 33°41' W 118°14'5 8.8
2017-Dec-13 06:58N 33°37' W 118°15'612.0
2017-Dec-13 06:30N 33°36' W 118°21'815.2
2017-Dec-13 06:00N 33°40' W 118°29'815.3
2017-Dec-13 05:30N 33°44' W 118°37'715.1
2017-Dec-13 05:00N 33°48' W 118°45'815.0
2017-Dec-13 04:30N 33°52' W 118°53'715.0
2017-Dec-13 04:00N 33°55' W 119°01'815.2
2017-Dec-13 03:30N 33°59' W 119°09'714.4
2017-Dec-13 03:00N 34°04' W 119°15'510.6
2017-Dec-13 02:30N 34°09' W 119°13'0 0.5
2017-Dec-13 01:59N 34°09' W 119°12'0 0.0
2017-Dec-12 21:44N 34°09' W 119°12'0 0.0
2017-Dec-12 21:29N 34°09' W 119°12'0 0.0
2017-Dec-12 20:56N 34°09' W 119°12'0 0.0
2017-Dec-12 19:14N 34°09' W 119°12'0 0.0
2017-Dec-12 18:56N 34°09' W 119°12'0 0.0
2017-Dec-12 16:47N 34°09' W 119°12'0 0.0
2017-Dec-12 16:29N 34°09' W 119°12'0 0.0
2017-Dec-12 14:35N 34°09' W 119°12'0 0.2
2017-Dec-12 14:30N 34°09' W 119°12'2 4.3
2017-Dec-12 14:01N 34°07' W 119°14'3 5.8
2017-Dec-12 13:31N 34°04' W 119°15'612.2
2017-Dec-12 12:59N 34°01' W 119°08'612.9
2017-Dec-12 12:30N 33°58' W 119°02'713.2
2017-Dec-12 11:59N 33°55' W 118°54'613.4
2017-Dec-12 11:31N 33°51' W 118°48'713.3
2017-Dec-12 11:00N 33°48' W 118°41'713.3
2017-Dec-12 10:30N 33°45' W 118°34'713.2
2017-Dec-12 09:59N 33°41' W 118°27'1612.1
2017-Dec-12 08:40N 33°35' W 118°09'211.8
2017-Dec-12 08:30N 33°33' W 118°09'613.0
2017-Dec-12 08:00N 33°27' W 118°06'714.0
2017-Dec-12 07:30N 33°20' W 118°03'713.7
2017-Dec-12 07:00N 33°14' W 118°00'714.0
2017-Dec-12 06:30N 33°07' W 117°57'714.1
2017-Dec-12 06:00N 33°01' W 117°54'713.9
2017-Dec-12 05:31N 32°55' W 117°50'713.9
2017-Dec-12 05:00N 32°48' W 117°47'713.5
2017-Dec-12 04:30N 32°42' W 117°43'713.8
2017-Dec-12 04:00N 32°36' W 117°40'714.0
2017-Dec-12 03:30N 32°30' W 117°37'714.0
2017-Dec-12 03:00N 32°23' W 117°34'5 9.6
2017-Dec-12 02:30N 32°18' W 117°32'  

Dump ship's entire track history